createdAt,value
2019-06-08T00:00:15.195Z,99946
2019-06-08T00:01:15.166Z,99945
2019-06-08T00:02:15.199Z,99949
2019-06-08T00:03:15.260Z,99951
2019-06-08T00:04:15.309Z,99961
2019-06-08T00:05:15.419Z,99955
2019-06-08T00:06:15.456Z,99955
2019-06-08T00:07:15.500Z,99958
2019-06-08T00:08:15.598Z,99959
2019-06-08T00:09:15.594Z,99966
2019-06-08T00:10:15.685Z,99958
2019-06-08T00:11:15.713Z,99961
2019-06-08T00:12:15.792Z,99961
2019-06-08T00:13:15.867Z,99962
2019-06-08T00:14:16.241Z,99964
2019-06-08T00:15:17.033Z,99956
2019-06-08T00:16:16.094Z,99957
2019-06-08T00:17:30.191Z,99963
2019-06-08T00:18:16.196Z,99972
2019-06-08T00:19:16.239Z,99963
2019-06-08T00:20:16.293Z,99963
2019-06-08T00:21:16.386Z,99961
2019-06-08T00:22:16.493Z,99960
2019-06-08T00:23:16.550Z,99954
2019-06-08T00:24:16.634Z,99956
2019-06-08T00:25:16.695Z,99953
2019-06-08T00:26:16.807Z,99952
2019-06-08T00:27:16.917Z,99952
2019-06-08T00:28:17.289Z,99960
2019-06-08T00:29:17.156Z,99954
2019-06-08T00:30:31.647Z,99960
2019-06-08T00:31:18.700Z,99956
2019-06-08T00:32:17.152Z,99959
2019-06-08T00:33:17.376Z,99968
2019-06-08T00:34:17.325Z,99965
2019-06-08T00:35:17.449Z,99971
2019-06-08T00:36:17.528Z,99970
2019-06-08T00:37:17.577Z,99966
2019-06-08T00:38:17.637Z,99970
2019-06-08T00:39:17.691Z,99970
2019-06-08T00:40:17.752Z,99970
2019-06-08T00:41:18.515Z,99975
2019-06-08T00:42:17.979Z,99972
2019-06-08T00:43:17.986Z,99967
2019-06-08T00:44:18.028Z,99968
2019-06-08T00:45:18.358Z,99969
2019-06-08T00:46:18.152Z,99955
2019-06-08T00:47:19.235Z,99972
2019-06-08T00:48:19.751Z,99957
2019-06-08T00:49:19.474Z,99963
2019-06-08T00:50:19.645Z,99958
2019-06-08T00:51:19.761Z,99961
2019-06-08T00:52:19.874Z,99969
2019-06-08T00:53:20.092Z,99965
2019-06-08T00:54:20.204Z,99958
2019-06-08T00:55:20.308Z,99973
2019-06-08T00:56:20.425Z,99964
2019-06-08T00:57:20.567Z,99973
2019-06-08T00:58:20.745Z,99978
2019-06-08T00:59:20.776Z,99965
2019-06-08T01:00:21.057Z,99969
2019-06-08T01:01:23.252Z,99979
2019-06-08T01:02:21.255Z,99973
2019-06-08T01:03:20.413Z,99972
2019-06-08T01:04:21.491Z,99985
2019-06-08T01:05:20.653Z,99975
2019-06-08T01:06:21.736Z,99976
2019-06-08T01:07:20.834Z,99987
2019-06-08T01:08:22.518Z,99983
2019-06-08T01:09:21.048Z,99984
2019-06-08T01:10:22.249Z,99989
2019-06-08T01:11:21.301Z,99992
2019-06-08T01:12:21.360Z,99983
2019-06-08T01:13:21.570Z,99986
2019-06-08T01:14:21.612Z,99986
2019-06-08T01:15:26.688Z,99995
2019-06-08T01:16:21.741Z,99996
2019-06-08T01:17:21.836Z,99995
2019-06-08T01:18:22.850Z,99990
2019-06-08T01:19:22.002Z,99991
2019-06-08T01:20:22.187Z,99985
2019-06-08T01:21:22.150Z,99997
2019-06-08T01:22:22.520Z,99999
2019-06-08T01:23:22.303Z,99995
2019-06-08T01:24:22.422Z,100007
2019-06-08T01:25:22.492Z,100009
2019-06-08T01:26:22.659Z,99997
2019-06-08T01:27:22.686Z,99998
2019-06-08T01:28:22.768Z,99996
2019-06-08T01:29:22.851Z,99999
2019-06-08T01:30:22.963Z,100002
2019-06-08T01:31:23.080Z,100000
2019-06-08T01:32:23.163Z,100012
2019-06-08T01:33:23.275Z,100010
2019-06-08T01:34:23.396Z,100009
2019-06-08T01:35:23.529Z,100011
2019-06-08T01:36:23.612Z,100017
2019-06-08T01:37:23.740Z,100015
2019-06-08T01:38:23.865Z,100016
2019-06-08T01:39:23.944Z,100010
2019-06-08T01:40:24.082Z,100007
2019-06-08T01:41:24.167Z,100027
2019-06-08T01:42:24.255Z,100016
2019-06-08T01:43:24.405Z,100018
2019-06-08T01:44:24.486Z,100024
2019-06-08T01:45:24.580Z,100018
2019-06-08T01:46:24.691Z,100026
2019-06-08T01:47:24.917Z,100022
2019-06-08T01:48:24.996Z,100019
2019-06-08T01:49:25.023Z,100020
2019-06-08T01:50:25.224Z,100022
2019-06-08T01:51:25.339Z,100024
2019-06-08T01:52:25.434Z,100030
2019-06-08T01:53:25.556Z,100031
2019-06-08T01:54:25.694Z,100033
2019-06-08T01:55:25.820Z,100019
2019-06-08T01:56:25.889Z,100024
2019-06-08T01:57:25.986Z,100024
2019-06-08T01:58:26.188Z,100021
2019-06-08T01:59:26.190Z,100028
2019-06-08T02:00:31.527Z,100025
2019-06-08T02:01:26.474Z,100026
2019-06-08T02:02:26.592Z,100023
2019-06-08T02:03:26.966Z,100026
2019-06-08T02:04:26.867Z,100034
2019-06-08T02:05:26.977Z,100027
2019-06-08T02:06:27.084Z,100016
2019-06-08T02:07:27.177Z,100025
2019-06-08T02:08:27.308Z,100021
2019-06-08T02:09:27.416Z,100019
2019-06-08T02:10:27.485Z,100026
2019-06-08T02:11:27.466Z,100020
2019-06-08T02:12:27.547Z,100021
2019-06-08T02:13:27.667Z,100016
2019-06-08T02:14:27.790Z,100018
2019-06-08T02:15:27.901Z,100032
2019-06-08T02:16:27.978Z,100033
2019-06-08T02:17:28.128Z,100027
2019-06-08T02:18:38.691Z,100020
2019-06-08T02:19:29.375Z,100019
2019-06-08T02:20:29.378Z,100017
2019-06-08T02:21:29.507Z,100023
2019-06-08T02:22:29.738Z,100030
2019-06-08T02:23:29.856Z,100030
2019-06-08T02:24:30.030Z,100028
2019-06-08T02:25:30.019Z,100034
2019-06-08T02:26:30.742Z,100027
2019-06-08T02:27:30.208Z,100033
2019-06-08T02:28:30.395Z,100030
2019-06-08T02:29:30.434Z,100028
2019-06-08T02:30:31.109Z,100035
2019-06-08T02:31:31.231Z,100031
2019-06-08T02:32:31.484Z,100035
2019-06-08T02:33:30.771Z,100032
2019-06-08T02:34:31.114Z,100032
2019-06-08T02:35:31.152Z,100040
2019-06-08T02:36:31.501Z,100040
2019-06-08T02:37:31.438Z,100034
2019-06-08T02:38:30.324Z,100050
2019-06-08T02:39:31.184Z,100051
2019-06-08T02:40:30.707Z,100042
2019-06-08T02:41:31.591Z,100047
2019-06-08T02:42:31.061Z,100047
2019-06-08T02:43:31.589Z,100039
2019-06-08T02:44:30.541Z,100053
2019-06-08T02:45:32.494Z,100045
2019-06-08T02:46:31.484Z,100050
2019-06-08T02:47:30.847Z,100051
2019-06-08T02:48:31.877Z,100053
2019-06-08T02:49:31.556Z,100059
2019-06-08T02:50:31.337Z,100063
2019-06-08T02:51:31.665Z,100059
2019-06-08T02:52:32.300Z,100070
2019-06-08T02:53:32.025Z,100062
2019-06-08T02:54:32.884Z,100058
2019-06-08T02:55:31.484Z,100068
2019-06-08T02:56:32.485Z,100067
2019-06-08T02:57:31.508Z,100064
2019-06-08T02:58:31.706Z,100067
2019-06-08T02:59:31.656Z,100068
2019-06-08T03:00:31.961Z,100070
2019-06-08T03:01:32.055Z,100075
2019-06-08T03:02:32.085Z,100068
2019-06-08T03:03:32.127Z,100063
2019-06-08T03:04:32.842Z,100056
2019-06-08T03:05:32.473Z,100073
2019-06-08T03:06:32.862Z,100079
2019-06-08T03:07:32.829Z,100070
2019-06-08T03:08:34.797Z,100072
2019-06-08T03:09:33.062Z,100072
2019-06-08T03:10:33.383Z,100078
2019-06-08T03:11:33.217Z,100082
2019-06-08T03:12:33.401Z,100090
2019-06-08T03:13:33.835Z,100097
2019-06-08T03:14:33.828Z,100085
2019-06-08T03:15:34.960Z,100079
2019-06-08T03:16:33.741Z,100090
2019-06-08T03:17:33.967Z,100094
2019-06-08T03:18:34.281Z,100097
2019-06-08T03:19:33.922Z,100101
2019-06-08T03:20:34.190Z,100104
2019-06-08T03:21:34.482Z,100094
2019-06-08T03:22:34.668Z,100099
2019-06-08T03:23:34.657Z,100104
2019-06-08T03:24:34.821Z,100105
2019-06-08T03:25:41.965Z,100106
2019-06-08T03:26:34.748Z,100103
2019-06-08T03:27:35.233Z,100105
2019-06-08T03:28:35.487Z,100109
2019-06-08T03:29:35.458Z,100111
2019-06-08T03:30:38.660Z,100110
2019-06-08T03:31:40.074Z,100115
2019-06-08T03:32:39.520Z,100117
2019-06-08T03:33:39.673Z,100122
2019-06-08T03:34:39.447Z,100112
2019-06-08T03:35:39.906Z,100108
2019-06-08T03:36:40.242Z,100109
2019-06-08T03:37:36.205Z,100110
2019-06-08T03:38:36.227Z,100117
2019-06-08T03:39:37.435Z,100117
2019-06-08T03:40:36.371Z,100115
2019-06-08T03:41:36.628Z,100123
2019-06-08T03:42:51.555Z,100115
2019-06-08T03:43:38.097Z,100124
2019-06-08T03:44:36.663Z,100121
2019-06-08T03:45:36.841Z,100118
2019-06-08T03:46:37.113Z,100121
2019-06-08T03:47:37.541Z,100121
2019-06-08T03:48:37.793Z,100124
2019-06-08T03:49:47.352Z,100120
2019-06-08T03:50:37.911Z,100122
2019-06-08T03:51:40.602Z,100127
2019-06-08T03:52:38.138Z,100135
2019-06-08T03:53:38.271Z,100131
2019-06-08T03:54:38.828Z,100131
2019-06-08T03:55:38.454Z,100133
2019-06-08T03:56:38.448Z,100127
2019-06-08T03:57:38.722Z,100147
2019-06-08T03:58:38.928Z,100139
2019-06-08T03:59:39.038Z,100139
2019-06-08T04:00:38.873Z,100141
2019-06-08T04:01:40.193Z,100145
2019-06-08T04:02:40.318Z,100145
2019-06-08T04:03:40.310Z,100146
2019-06-08T04:04:40.165Z,100140
2019-06-08T04:05:40.706Z,100133
2019-06-08T04:06:40.247Z,100145
2019-06-08T04:07:40.258Z,100146
2019-06-08T04:08:40.724Z,100154
2019-06-08T04:09:40.323Z,100163
2019-06-08T04:10:40.302Z,100157
2019-06-08T04:11:40.487Z,100149
2019-06-08T04:12:40.391Z,100154
2019-06-08T04:13:40.335Z,100159
2019-06-08T04:14:40.273Z,100158
2019-06-08T04:15:40.757Z,100153
2019-06-08T04:16:40.569Z,100160
2019-06-08T04:17:40.315Z,100155
2019-06-08T04:18:40.647Z,100149
2019-06-08T04:19:56.960Z,100149
2019-06-08T04:20:40.798Z,100150
2019-06-08T04:21:40.576Z,100148
2019-06-08T04:22:40.745Z,100169
2019-06-08T04:23:41.049Z,100159
2019-06-08T04:24:40.768Z,100149
2019-06-08T04:25:40.905Z,100152
2019-06-08T04:26:40.956Z,100154
2019-06-08T04:27:40.802Z,100156
2019-06-08T04:28:41.057Z,100149
2019-06-08T04:29:40.131Z,100154
2019-06-08T04:30:41.430Z,100154
2019-06-08T04:31:40.215Z,100151
2019-06-08T04:32:41.159Z,100152
2019-06-08T04:33:40.632Z,100151
2019-06-08T04:34:41.356Z,100150
2019-06-08T04:35:40.814Z,100154
2019-06-08T04:36:41.715Z,100151
2019-06-08T04:37:40.773Z,100154
2019-06-08T04:38:41.721Z,100160
2019-06-08T04:39:40.705Z,100161
2019-06-08T04:40:41.875Z,100159
2019-06-08T04:41:41.077Z,100155
2019-06-08T04:42:42.197Z,100162
2019-06-08T04:43:40.896Z,100163
2019-06-08T04:44:41.027Z,100168
2019-06-08T04:45:41.511Z,100173
2019-06-08T04:46:41.251Z,100168
2019-06-08T04:47:41.433Z,100174
2019-06-08T04:48:41.210Z,100168
2019-06-08T04:49:40.999Z,100166
2019-06-08T04:50:41.415Z,100165
2019-06-08T04:51:41.164Z,100169
2019-06-08T04:52:41.292Z,100174
2019-06-08T04:53:41.445Z,100188
2019-06-08T04:54:41.137Z,100183
2019-06-08T04:55:41.408Z,100189
2019-06-08T04:56:41.450Z,100176
2019-06-08T04:57:41.800Z,100184
2019-06-08T04:58:42.072Z,100175
2019-06-08T04:59:41.601Z,100179
2019-06-08T05:00:41.693Z,100183
2019-06-08T05:01:41.480Z,100178
2019-06-08T05:02:42.080Z,100186
2019-06-08T05:03:41.631Z,100185
2019-06-08T05:04:41.469Z,100193
2019-06-08T05:05:41.687Z,100192
2019-06-08T05:06:41.566Z,100191
2019-06-08T05:07:41.884Z,100191
2019-06-08T05:08:41.615Z,100202
2019-06-08T05:09:41.624Z,100198
2019-06-08T05:10:41.741Z,100199
2019-06-08T05:11:41.748Z,100196
2019-06-08T05:12:41.734Z,100203
2019-06-08T05:13:41.761Z,100208
2019-06-08T05:14:41.720Z,100219
2019-06-08T05:15:41.848Z,100199
2019-06-08T05:16:41.785Z,100206
2019-06-08T05:17:41.826Z,100210
2019-06-08T05:18:41.806Z,100202
2019-06-08T05:19:42.026Z,100209
2019-06-08T05:20:43.882Z,100211
2019-06-08T05:21:42.044Z,100219
2019-06-08T05:22:42.056Z,100208
2019-06-08T05:23:42.053Z,100208
2019-06-08T05:24:42.065Z,100206
2019-06-08T05:25:41.999Z,100208
2019-06-08T05:26:42.354Z,100209
2019-06-08T05:27:42.065Z,100217
2019-06-08T05:28:42.033Z,100220
2019-06-08T05:29:42.048Z,100216
2019-06-08T05:30:42.056Z,100213
2019-06-08T05:31:42.116Z,100216
2019-06-08T05:32:42.129Z,100219
2019-06-08T05:33:42.120Z,100213
2019-06-08T05:34:42.162Z,100224
2019-06-08T05:35:42.198Z,100213
2019-06-08T05:36:42.199Z,100211
2019-06-08T05:37:42.345Z,100218
2019-06-08T05:38:42.332Z,100214
2019-06-08T05:39:42.351Z,100219
2019-06-08T05:40:42.432Z,100223
2019-06-08T05:41:42.374Z,100217
2019-06-08T05:42:42.722Z,100223
2019-06-08T05:43:42.416Z,100222
2019-06-08T05:44:42.428Z,100220
2019-06-08T05:45:42.447Z,100220
2019-06-08T05:46:42.504Z,100219
2019-06-08T05:47:42.487Z,100232
2019-06-08T05:48:42.518Z,100214
2019-06-08T05:49:42.511Z,100221
2019-06-08T05:50:56.704Z,100223
2019-06-08T05:51:42.553Z,100226
2019-06-08T05:52:42.624Z,100235
2019-06-08T05:53:42.590Z,100234
2019-06-08T05:54:42.622Z,100248
2019-06-08T05:55:42.651Z,100235
2019-06-08T05:56:42.650Z,100236
2019-06-08T05:57:43.006Z,100230
2019-06-08T05:58:42.786Z,100234
2019-06-08T05:59:42.783Z,100232
2019-06-08T06:00:42.905Z,100237
2019-06-08T06:01:43.107Z,100233
2019-06-08T06:02:43.520Z,100247
2019-06-08T06:03:43.191Z,100239
2019-06-08T06:04:43.168Z,100247
2019-06-08T06:05:43.252Z,100246
2019-06-08T06:06:43.303Z,100252
2019-06-08T06:07:43.553Z,100248
2019-06-08T06:08:43.490Z,100248
2019-06-08T06:09:43.500Z,100240
2019-06-08T06:10:43.505Z,100258
2019-06-08T06:11:43.527Z,100254
2019-06-08T06:12:43.587Z,100252
2019-06-08T06:13:43.897Z,100263
2019-06-08T06:14:43.745Z,100263
2019-06-08T06:15:43.743Z,100251
2019-06-08T06:16:43.760Z,100278
2019-06-08T06:17:44.258Z,100263
2019-06-08T06:18:43.813Z,100267
2019-06-08T06:19:43.934Z,100276
2019-06-08T06:20:44.102Z,100267
2019-06-08T06:21:43.936Z,100269
2019-06-08T06:22:44.219Z,100289
2019-06-08T06:23:44.003Z,100270
2019-06-08T06:24:44.339Z,100276
2019-06-08T06:25:44.183Z,100271
2019-06-08T06:26:44.185Z,100286
2019-06-08T06:27:44.284Z,100275
2019-06-08T06:28:44.233Z,100272
2019-06-08T06:29:44.254Z,100288
2019-06-08T06:30:44.611Z,100298
2019-06-08T06:31:44.440Z,100286
2019-06-08T06:32:44.574Z,100295
2019-06-08T06:33:44.504Z,100298
2019-06-08T06:34:44.554Z,100296
2019-06-08T06:35:44.559Z,100301
2019-06-08T06:36:44.565Z,100291
2019-06-08T06:37:44.619Z,100286
2019-06-08T06:38:44.616Z,100296
2019-06-08T06:39:44.688Z,100300
2019-06-08T06:40:44.639Z,100292
2019-06-08T06:41:44.638Z,100299
2019-06-08T06:42:44.674Z,100306
2019-06-08T06:43:44.752Z,100313
2019-06-08T06:44:45.637Z,100310
2019-06-08T06:45:44.800Z,100322
2019-06-08T06:46:44.734Z,100313
2019-06-08T06:47:44.916Z,100315
2019-06-08T06:48:44.950Z,100317
2019-06-08T06:49:45.078Z,100321
2019-06-08T06:50:45.185Z,100325
2019-06-08T06:51:45.270Z,100333
2019-06-08T06:52:45.424Z,100334
2019-06-08T06:53:45.468Z,100328
2019-06-08T06:54:45.593Z,100325
2019-06-08T06:55:45.713Z,100321
2019-06-08T06:56:46.050Z,100368
2019-06-08T06:57:45.916Z,100331
2019-06-08T06:58:46.196Z,100322
2019-06-08T06:59:46.000Z,100328
2019-06-08T07:00:46.173Z,100338
2019-06-08T07:01:46.350Z,100372
2019-06-08T07:02:46.478Z,100375
2019-06-08T07:03:46.837Z,100354
2019-06-08T07:04:46.673Z,100339
2019-06-08T07:05:46.653Z,100332
2019-06-08T07:06:46.844Z,100345
2019-06-08T07:07:47.024Z,100341
2019-06-08T07:08:47.044Z,100341
2019-06-08T07:09:47.274Z,100342
2019-06-08T07:10:47.478Z,100341
2019-06-08T07:11:47.654Z,100351
2019-06-08T07:12:47.503Z,100352
2019-06-08T07:13:47.629Z,100386
2019-06-08T07:14:47.790Z,100390
2019-06-08T07:15:51.338Z,100368
2019-06-08T07:16:48.760Z,100347
2019-06-08T07:17:48.831Z,100356
2019-06-08T07:18:48.965Z,100344
2019-06-08T07:19:49.282Z,100376
2019-06-08T07:20:48.990Z,100355
2019-06-08T07:21:49.059Z,100374
2019-06-08T07:22:49.057Z,100361
2019-06-08T07:23:49.809Z,100367
2019-06-08T07:24:49.133Z,100375
2019-06-08T07:25:49.196Z,100370
2019-06-08T07:26:49.195Z,100371
2019-06-08T07:27:49.288Z,100380
2019-06-08T07:28:49.748Z,100364
2019-06-08T07:29:49.470Z,100371
2019-06-08T07:30:49.544Z,100383
2019-06-08T07:31:50.261Z,100377
2019-06-08T07:32:49.718Z,100373
2019-06-08T07:33:50.435Z,100396
2019-06-08T07:34:50.289Z,100397
2019-06-08T07:35:50.300Z,100402
2019-06-08T07:36:50.104Z,100395
2019-06-08T07:37:50.501Z,100399
2019-06-08T07:38:50.232Z,100390
2019-06-08T07:39:50.367Z,100393
2019-06-08T07:40:50.628Z,100392
2019-06-08T07:41:50.542Z,100392
2019-06-08T07:42:51.400Z,100407
2019-06-08T07:43:51.155Z,100393
2019-06-08T07:44:49.658Z,100397
2019-06-08T07:45:50.714Z,100401
2019-06-08T07:46:50.081Z,100393
2019-06-08T07:47:50.789Z,100403
2019-06-08T07:48:51.001Z,100404
2019-06-08T07:49:49.924Z,100409
2019-06-08T07:50:51.058Z,100405
2019-06-08T07:52:02.056Z,100397
2019-06-08T07:52:51.578Z,100403
2019-06-08T07:53:50.245Z,100406
2019-06-08T07:54:51.276Z,100408
2019-06-08T07:55:50.375Z,100406
2019-06-08T07:56:51.707Z,100395
2019-06-08T07:57:50.855Z,100411
2019-06-08T07:58:51.925Z,100400
2019-06-08T07:59:51.183Z,100401
2019-06-08T08:00:52.900Z,100398
2019-06-08T08:01:50.806Z,100413
2019-06-08T08:02:50.881Z,100435
2019-06-08T08:03:50.927Z,100411
2019-06-08T08:04:51.234Z,100419
2019-06-08T08:05:51.939Z,100411
2019-06-08T08:06:51.115Z,100419
2019-06-08T08:07:51.334Z,100418
2019-06-08T08:08:51.267Z,100423
2019-06-08T08:09:51.350Z,100414
2019-06-08T08:10:51.305Z,100441
2019-06-08T08:11:51.632Z,100432
2019-06-08T08:12:51.493Z,100425
2019-06-08T08:13:51.726Z,100425
2019-06-08T08:14:51.884Z,100411
2019-06-08T08:15:51.615Z,100415
2019-06-08T08:16:51.718Z,100404
2019-06-08T08:17:52.539Z,100414
2019-06-08T08:18:52.155Z,100410
2019-06-08T08:19:51.800Z,100411
2019-06-08T08:20:51.849Z,100412
2019-06-08T08:21:53.276Z,100407
2019-06-08T08:22:56.438Z,100413
2019-06-08T08:23:52.074Z,100424
2019-06-08T08:24:54.307Z,100424
2019-06-08T08:25:52.030Z,100414
2019-06-08T08:26:53.041Z,100417
2019-06-08T08:27:52.330Z,100426
2019-06-08T08:28:53.410Z,100448
2019-06-08T08:29:52.144Z,100432
2019-06-08T08:30:52.573Z,100433
2019-06-08T08:31:52.373Z,100443
2019-06-08T08:32:53.002Z,100442
2019-06-08T08:33:52.939Z,100439
2019-06-08T08:34:52.691Z,100434
2019-06-08T08:35:52.546Z,100443
2019-06-08T08:36:52.505Z,100432
2019-06-08T08:37:55.403Z,100440
2019-06-08T08:38:52.508Z,100443
2019-06-08T08:39:52.369Z,100454
2019-06-08T08:40:53.276Z,100451
2019-06-08T08:41:55.415Z,100429
2019-06-08T08:42:52.613Z,100453
2019-06-08T08:43:53.125Z,100454
2019-06-08T08:44:53.058Z,100447
2019-06-08T08:45:52.859Z,100456
2019-06-08T08:46:53.427Z,100466
2019-06-08T08:48:05.817Z,100461
2019-06-08T08:48:53.114Z,100448
2019-06-08T08:49:52.943Z,100433
2019-06-08T08:50:52.968Z,100450
2019-06-08T08:51:52.943Z,100448
2019-06-08T08:52:53.039Z,100455
2019-06-08T08:54:53.088Z,100433
2019-06-08T08:55:53.211Z,100462
2019-06-08T08:56:55.365Z,100457
2019-06-08T08:57:53.545Z,100467
2019-06-08T08:58:53.289Z,100455
2019-06-08T08:59:55.010Z,100471
2019-06-08T09:00:54.049Z,100456
2019-06-08T09:01:53.511Z,100463
2019-06-08T09:03:12.940Z,100494
2019-06-08T09:03:55.848Z,100458
2019-06-08T09:04:54.008Z,100463
2019-06-08T09:05:54.405Z,100456
2019-06-08T09:06:54.231Z,100468
2019-06-08T09:07:54.567Z,100488
2019-06-08T09:08:54.521Z,100459
2019-06-08T09:09:54.263Z,100464
2019-06-08T09:10:54.201Z,100472
2019-06-08T09:11:54.844Z,100482
2019-06-08T09:12:54.440Z,100457
2019-06-08T09:13:54.379Z,100454
2019-06-08T09:14:54.784Z,100479
2019-06-08T09:15:54.581Z,100476
2019-06-08T09:16:54.479Z,100470
2019-06-08T09:17:54.582Z,100482
2019-06-08T09:18:54.669Z,100476
2019-06-08T09:19:54.558Z,100485
2019-06-08T09:20:54.838Z,100480
2019-06-08T09:21:54.940Z,100468
2019-06-08T09:23:02.916Z,100483
2019-06-08T09:23:54.640Z,100488
2019-06-08T09:24:54.918Z,100484
2019-06-08T09:25:57.032Z,100492
2019-06-08T09:26:54.777Z,100496
2019-06-08T09:27:55.259Z,100508
2019-06-08T09:28:55.030Z,100506
2019-06-08T09:29:55.645Z,100505
2019-06-08T09:30:54.925Z,100501
2019-06-08T09:31:54.832Z,100515
2019-06-08T09:32:55.360Z,100505
2019-06-08T09:33:59.161Z,100512
2019-06-08T09:34:55.198Z,100522
2019-06-08T09:35:58.128Z,100514
2019-06-08T09:36:56.510Z,100517
2019-06-08T09:37:55.547Z,100520
2019-06-08T09:39:01.405Z,100539
2019-06-08T09:39:58.869Z,100540
2019-06-08T09:40:55.761Z,100535
2019-06-08T09:41:57.873Z,100526
2019-06-08T09:42:58.197Z,100541
2019-06-08T09:43:56.252Z,100558
2019-06-08T09:44:56.224Z,100554
2019-06-08T09:45:58.685Z,100535
2019-06-08T09:46:58.654Z,100529
2019-06-08T09:47:56.169Z,100535
2019-06-08T09:48:59.389Z,100537
2019-06-08T09:49:58.697Z,100538
2019-06-08T09:50:56.078Z,100554
2019-06-08T09:51:58.657Z,100546
2019-06-08T09:53:57.351Z,100554
2019-06-08T09:54:59.195Z,100555
2019-06-08T09:55:57.350Z,100557
2019-06-08T09:56:59.225Z,100553
2019-06-08T09:58:01.769Z,100561
2019-06-08T09:59:01.221Z,100557
2019-06-08T09:59:59.738Z,100590
2019-06-08T10:00:59.472Z,100559
2019-06-08T10:02:00.080Z,100559
2019-06-08T10:02:59.581Z,100561
2019-06-08T10:03:59.084Z,100563
2019-06-08T10:04:58.839Z,100565
2019-06-08T10:05:59.321Z,100567
2019-06-08T10:06:58.948Z,100565
2019-06-08T10:07:59.168Z,100569
2019-06-08T10:08:57.250Z,100566
2019-06-08T10:09:59.102Z,100557
2019-06-08T10:10:59.408Z,100561
2019-06-08T10:11:59.459Z,100590
2019-06-08T10:12:59.558Z,100571
2019-06-08T10:13:59.777Z,100568
2019-06-08T10:14:57.275Z,100593
2019-06-08T10:15:59.948Z,100583
2019-06-08T10:16:59.079Z,100575
2019-06-08T10:17:57.589Z,100582
2019-06-08T10:19:00.329Z,100574
2019-06-08T10:19:59.219Z,100578
2019-06-08T10:20:59.390Z,100587
2019-06-08T10:21:57.610Z,100592
2019-06-08T10:22:59.637Z,100604
2019-06-08T10:23:59.702Z,100603
2019-06-08T10:25:00.583Z,100601
2019-06-08T10:25:59.531Z,100574
2019-06-08T10:26:57.908Z,100582
2019-06-08T10:28:00.367Z,100597
2019-06-08T10:29:00.035Z,100600
2019-06-08T10:29:59.948Z,100603
2019-06-08T10:30:59.951Z,100600
2019-06-08T10:31:58.193Z,100604
2019-06-08T10:33:00.375Z,100592
2019-06-08T10:34:00.480Z,100584
2019-06-08T10:35:00.251Z,100580
2019-06-08T10:36:00.467Z,100586
2019-06-08T10:37:03.283Z,100583
2019-06-08T10:38:02.482Z,100586
2019-06-08T10:39:01.549Z,100582
2019-06-08T10:40:00.517Z,100592
2019-06-08T10:41:00.029Z,100595
2019-06-08T10:42:01.384Z,100610
2019-06-08T10:43:01.225Z,100595
2019-06-08T10:44:00.059Z,100599
2019-06-08T10:45:05.068Z,100598
2019-06-08T10:46:02.788Z,100590
2019-06-08T10:47:01.999Z,100593
2019-06-08T10:48:01.361Z,100598
2019-06-08T10:49:00.557Z,100589
2019-06-08T10:50:05.354Z,100596
2019-06-08T10:51:02.150Z,100596
2019-06-08T10:52:02.007Z,100618
2019-06-08T10:53:02.782Z,100603
2019-06-08T10:54:00.955Z,100611
2019-06-08T10:55:01.462Z,100614
2019-06-08T10:56:01.637Z,100617
2019-06-08T10:57:02.419Z,100614
2019-06-08T10:58:01.114Z,100609
2019-06-08T10:59:02.242Z,100617
2019-06-08T11:00:01.423Z,100614
2019-06-08T11:01:02.563Z,100619
2019-06-08T11:02:03.778Z,100629
2019-06-08T11:03:01.998Z,100618
2019-06-08T11:04:01.856Z,100624
2019-06-08T11:05:04.297Z,100617
2019-06-08T11:06:03.174Z,100603
2019-06-08T11:07:05.429Z,100610
2019-06-08T11:08:02.884Z,100612
2019-06-08T11:09:04.178Z,100627
2019-06-08T11:10:02.360Z,100639
2019-06-08T11:11:01.495Z,100623
2019-06-08T11:12:01.915Z,100645
2019-06-08T11:13:05.064Z,100646
2019-06-08T11:14:02.459Z,100636
2019-06-08T11:15:01.924Z,100632
2019-06-08T11:16:02.720Z,100623
2019-06-08T11:17:01.676Z,100646
2019-06-08T11:18:03.362Z,100619
2019-06-08T11:19:02.951Z,100658
2019-06-08T11:20:02.925Z,100646
2019-06-08T11:21:02.330Z,100647
2019-06-08T11:22:04.633Z,100627
2019-06-08T11:23:02.410Z,100633
2019-06-08T11:24:12.876Z,100696
2019-06-08T11:25:02.438Z,100657
2019-06-08T11:26:04.468Z,100637
2019-06-08T11:27:02.235Z,100653
2019-06-08T11:28:02.153Z,100654
2019-06-08T11:29:03.481Z,100644
2019-06-08T11:30:09.798Z,100634
2019-06-08T11:31:02.698Z,100646
2019-06-08T11:32:02.428Z,100649
2019-06-08T11:33:02.392Z,100633
2019-06-08T11:34:02.591Z,100651
2019-06-08T11:35:02.522Z,100657
2019-06-08T11:36:04.408Z,100657
2019-06-08T11:37:03.566Z,100643
2019-06-08T11:38:02.586Z,100651
2019-06-08T11:39:02.882Z,100659
2019-06-08T11:40:03.129Z,100644
2019-06-08T11:41:04.529Z,100650
2019-06-08T11:42:03.140Z,100654
2019-06-08T11:43:03.072Z,100651
2019-06-08T11:44:03.780Z,100658
2019-06-08T11:45:03.247Z,100661
2019-06-08T11:46:03.269Z,100656
2019-06-08T11:47:03.267Z,100653
2019-06-08T11:48:03.115Z,100645
2019-06-08T11:49:04.837Z,100660
2019-06-08T11:50:03.257Z,100664
2019-06-08T11:51:03.220Z,100657
2019-06-08T11:52:03.401Z,100659
2019-06-08T11:53:03.957Z,100667
2019-06-08T11:54:03.701Z,100672
2019-06-08T11:55:04.083Z,100677
2019-06-08T11:56:03.572Z,100679
2019-06-08T11:57:03.745Z,100670
2019-06-08T11:58:03.889Z,100676
2019-06-08T11:59:04.066Z,100683
2019-06-08T12:00:10.495Z,100674
2019-06-08T12:01:05.436Z,100671
2019-06-08T12:02:04.397Z,100690
2019-06-08T12:03:04.541Z,100688
2019-06-08T12:04:04.596Z,100679
2019-06-08T12:05:04.711Z,100690
2019-06-08T12:06:04.908Z,100673
2019-06-08T12:07:05.299Z,100688
2019-06-08T12:08:05.222Z,100688
2019-06-08T12:09:05.289Z,100683
2019-06-08T12:10:05.315Z,100682
2019-06-08T12:11:06.427Z,100691
2019-06-08T12:12:05.467Z,100699
2019-06-08T12:13:05.592Z,100674
2019-06-08T12:14:08.067Z,100690
2019-06-08T12:15:08.173Z,100686
2019-06-08T12:16:09.183Z,100701
2019-06-08T12:17:08.838Z,100683
2019-06-08T12:18:08.250Z,100679
2019-06-08T12:19:09.884Z,100704
2019-06-08T12:20:08.449Z,100706
2019-06-08T12:21:08.555Z,100704
2019-06-08T12:22:08.685Z,100694
2019-06-08T12:23:06.817Z,100713
2019-06-08T12:24:06.861Z,100688
2019-06-08T12:25:06.839Z,100711
2019-06-08T12:26:06.986Z,100696
2019-06-08T12:27:14.050Z,100695
2019-06-08T12:28:07.295Z,100702
2019-06-08T12:29:09.869Z,100688
2019-06-08T12:30:10.876Z,100703
2019-06-08T12:31:11.909Z,100706
2019-06-08T12:32:09.302Z,100696
2019-06-08T12:33:09.739Z,100707
2019-06-08T12:34:08.029Z,100699